createdAt,value
2018-04-26T00:01:59.724Z,67.70
2018-04-26T00:04:27.717Z,68.00
2018-04-26T00:06:55.247Z,68.50
2018-04-26T00:09:22.824Z,68.70
2018-04-26T00:11:50.500Z,69.10
2018-04-26T00:14:18.166Z,69.00
2018-04-26T00:16:47.135Z,69.30
2018-04-26T00:19:16.587Z,69.20
2018-04-26T00:21:44.713Z,68.90
2018-04-26T00:24:12.188Z,69.50
2018-04-26T00:26:40.407Z,69.60
2018-04-26T00:29:08.010Z,69.50
2018-04-26T00:31:35.672Z,69.40
2018-04-26T00:34:03.347Z,69.60
2018-04-26T00:36:32.318Z,69.70
2018-04-26T00:38:59.839Z,69.70
2018-04-26T00:41:27.337Z,69.70
2018-04-26T00:43:54.815Z,69.50
2018-04-26T00:46:22.276Z,69.70
2018-04-26T00:48:49.775Z,69.50
2018-04-26T00:51:22.970Z,69.30
2018-04-26T00:53:50.566Z,69.30
2018-04-26T00:56:18.261Z,69.10
2018-04-26T00:58:45.821Z,69.00
2018-04-26T01:01:14.053Z,66.80
2018-04-26T01:03:41.483Z,66.70
2018-04-26T01:06:08.944Z,66.30
2018-04-26T01:08:36.394Z,66.10
2018-04-26T01:11:04.662Z,65.90
2018-04-26T01:13:32.263Z,65.40
2018-04-26T01:15:59.780Z,65.80
2018-04-26T01:18:27.376Z,66.10
2018-04-26T01:20:55.045Z,66.20
2018-04-26T01:23:23.999Z,67.50
2018-04-26T01:25:51.590Z,67.40
2018-04-26T01:28:19.216Z,67.60
2018-04-26T01:30:46.670Z,67.50
2018-04-26T01:33:14.114Z,67.50
2018-04-26T01:35:41.621Z,67.20
2018-04-26T01:38:09.133Z,66.50
2018-04-26T01:40:36.744Z,66.10
2018-04-26T01:43:04.384Z,65.80
2018-04-26T01:45:31.837Z,65.70
2018-04-26T01:47:59.391Z,65.80
2018-04-26T01:50:26.973Z,65.90
2018-04-26T01:52:54.428Z,65.40
2018-04-26T01:55:21.969Z,65.60
2018-04-26T01:57:49.404Z,65.70
2018-04-26T02:00:17.003Z,65.60
2018-04-26T02:02:46.618Z,66.40
2018-04-26T02:05:14.066Z,66.30
2018-04-26T02:07:43.342Z,68.20
2018-04-26T02:10:10.922Z,68.20
2018-04-26T02:12:38.367Z,70.30
2018-04-26T02:15:06.658Z,70.50
2018-04-26T02:17:34.319Z,70.50
2018-04-26T02:20:01.782Z,70.40
2018-04-26T02:22:30.864Z,70.30
2018-04-26T02:24:58.398Z,70.30
2018-04-26T02:27:25.833Z,69.70
2018-04-26T02:29:53.644Z,70.00
2018-04-26T02:32:21.095Z,69.60
2018-04-26T02:34:48.768Z,69.50
2018-04-26T02:37:17.838Z,69.50
2018-04-26T02:39:45.473Z,69.50
2018-04-26T02:42:13.178Z,69.30
2018-04-26T02:44:40.809Z,69.20
2018-04-26T02:47:08.351Z,68.70
2018-04-26T02:49:35.971Z,68.70
2018-04-26T02:52:03.428Z,68.60
2018-04-26T02:54:30.921Z,68.50
2018-04-26T02:56:58.501Z,68.50
2018-04-26T02:59:25.969Z,68.10
2018-04-26T03:01:53.498Z,68.10
2018-04-26T03:04:20.932Z,67.60
2018-04-26T03:06:48.422Z,67.70
2018-04-26T03:09:15.953Z,67.70
2018-04-26T03:11:43.459Z,67.50
2018-04-26T03:14:11.120Z,67.80
2018-04-26T03:16:38.647Z,68.00
2018-04-26T03:19:06.189Z,67.90
2018-04-26T03:21:33.778Z,67.90
2018-04-26T03:24:01.217Z,68.10
2018-04-26T03:26:28.668Z,69.00
2018-04-26T03:28:56.295Z,68.40
2018-04-26T03:31:23.799Z,68.40
2018-04-26T03:33:51.257Z,68.50
2018-04-26T03:36:18.854Z,68.40
2018-04-26T03:38:47.012Z,68.60
2018-04-26T03:41:14.479Z,68.70
2018-04-26T03:43:42.034Z,68.60
2018-04-26T03:46:09.563Z,68.40
2018-04-26T03:48:37.132Z,68.20
2018-04-26T03:51:04.591Z,68.30
2018-04-26T03:53:32.058Z,68.10
2018-04-26T03:55:59.704Z,67.80
2018-04-26T03:58:27.246Z,67.60
2018-04-26T04:01:07.203Z,67.70
2018-04-26T04:03:46.666Z,67.70
2018-04-26T04:06:14.974Z,67.80
2018-04-26T04:08:42.593Z,67.80
2018-04-26T04:11:10.262Z,67.80
2018-04-26T04:13:37.910Z,68.00
2018-04-26T04:16:05.372Z,68.00
2018-04-26T04:18:32.926Z,67.80
2018-04-26T04:21:00.423Z,68.10
2018-04-26T04:23:29.138Z,68.30
2018-04-26T04:25:56.844Z,68.30
2018-04-26T04:28:24.526Z,68.30
2018-04-26T04:30:52.254Z,68.00
2018-04-26T04:33:20.021Z,67.90
2018-04-26T04:35:47.459Z,67.90
2018-04-26T04:40:50.872Z,68.10
2018-04-26T04:43:18.456Z,68.10
2018-04-26T04:45:45.926Z,68.20
2018-04-26T04:48:13.434Z,68.30
2018-04-26T04:50:41.681Z,68.30
2018-04-26T04:53:09.146Z,68.50
2018-04-26T04:55:36.620Z,68.20
2018-04-26T04:58:04.235Z,68.30
2018-04-26T05:00:31.888Z,68.50
2018-04-26T05:02:59.399Z,68.40
2018-04-26T05:05:26.857Z,68.30
2018-04-26T05:07:54.452Z,68.20
2018-04-26T05:10:22.107Z,68.30
2018-04-26T05:12:49.635Z,68.20
2018-04-26T05:15:17.090Z,68.00
2018-04-26T05:17:44.683Z,68.20
2018-04-26T05:20:12.351Z,68.20
2018-04-26T05:22:39.807Z,68.20
2018-04-26T05:25:07.585Z,68.10
2018-04-26T05:27:35.109Z,68.20
2018-04-26T05:30:02.740Z,67.90
2018-04-26T05:32:30.116Z,67.70
2018-04-26T05:34:57.563Z,67.70
2018-04-26T05:37:25.155Z,67.50
2018-04-26T05:39:52.805Z,66.30
2018-04-26T05:42:20.286Z,66.30
2018-04-26T05:44:47.806Z,66.20
2018-04-26T05:47:15.297Z,67.50
2018-04-26T05:49:42.728Z,67.50
2018-04-26T05:52:10.190Z,66.70
2018-04-26T05:54:37.643Z,67.60
2018-04-26T05:57:05.214Z,67.80
2018-04-26T05:59:32.863Z,67.70
2018-04-26T06:02:01.885Z,67.70
2018-04-26T06:04:29.635Z,67.60
2018-04-26T06:06:57.098Z,67.60
2018-04-26T06:09:25.309Z,67.30
2018-04-26T06:11:52.824Z,67.40
2018-04-26T06:14:20.363Z,67.60
2018-04-26T06:16:47.831Z,67.30
2018-04-26T06:19:15.326Z,67.30
2018-04-26T06:21:43.676Z,65.50
2018-04-26T06:24:12.763Z,65.60
2018-04-26T06:26:40.208Z,65.60
2018-04-26T06:29:07.879Z,64.80
2018-04-26T06:31:35.333Z,65.00
2018-04-26T06:34:02.882Z,64.80
2018-04-26T06:36:30.343Z,64.00
2018-04-26T06:38:57.878Z,63.20
2018-04-26T06:41:25.562Z,63.80
2018-04-26T06:43:53.136Z,63.70
2018-04-26T06:46:20.761Z,63.30
2018-04-26T06:48:48.824Z,63.90
2018-04-26T06:51:16.406Z,64.00
2018-04-26T06:53:44.067Z,63.80
2018-04-26T06:56:12.375Z,63.90
2018-04-26T06:58:39.899Z,63.10
2018-04-26T07:01:07.411Z,63.20
2018-04-26T07:03:36.038Z,63.40
2018-04-26T07:06:03.962Z,63.20
2018-04-26T07:08:31.686Z,62.90
2018-04-26T07:10:59.283Z,63.00
2018-04-26T07:13:27.511Z,62.20
2018-04-26T07:15:54.960Z,62.10
2018-04-26T07:18:22.521Z,61.40
2018-04-26T07:20:49.970Z,62.20
2018-04-26T07:23:18.355Z,62.60
2018-04-26T07:25:45.925Z,62.10
2018-04-26T07:28:13.390Z,61.20
2018-04-26T07:30:42.946Z,61.70
2018-04-26T07:33:10.533Z,61.60
2018-04-26T07:35:38.015Z,61.80
2018-04-26T07:38:06.964Z,60.80
2018-04-26T07:40:34.560Z,60.80
2018-04-26T07:43:02.088Z,61.30
2018-04-26T07:45:29.653Z,61.60
2018-04-26T07:47:57.129Z,61.00
2018-04-26T07:50:24.661Z,61.00
2018-04-26T07:52:52.104Z,61.10
2018-04-26T07:55:19.680Z,60.30
2018-04-26T07:57:47.231Z,60.50
2018-04-26T08:00:14.831Z,60.80
2018-04-26T08:02:43.151Z,60.50
2018-04-26T08:05:10.662Z,60.40
2018-04-26T08:07:38.196Z,60.20
2018-04-26T08:10:05.871Z,60.20
2018-04-26T08:12:33.348Z,60.50
2018-04-26T08:15:00.964Z,60.10
2018-04-26T08:17:28.479Z,60.00
2018-04-26T08:19:55.951Z,60.00
2018-04-26T08:22:23.420Z,60.20
2018-04-26T08:24:50.879Z,59.90
2018-04-26T08:27:18.464Z,59.60
2018-04-26T08:29:46.120Z,60.00
2018-04-26T08:32:13.594Z,59.30
2018-04-26T08:34:41.231Z,59.80
2018-04-26T08:37:08.691Z,59.00
2018-04-26T08:39:36.154Z,59.50
2018-04-26T08:42:04.420Z,60.20
2018-04-26T08:44:32.082Z,60.30
2018-04-26T08:46:59.754Z,59.80
2018-04-26T08:49:28.855Z,60.70
2018-04-26T08:51:56.398Z,60.70
2018-04-26T08:54:23.836Z,60.20
2018-04-26T08:56:51.627Z,59.30
2018-04-26T08:59:19.060Z,59.20
2018-04-26T09:01:46.532Z,59.30
2018-04-26T09:04:14.192Z,59.00
2018-04-26T09:06:41.867Z,59.40
2018-04-26T09:09:09.307Z,59.40
2018-04-26T09:11:36.838Z,58.70
2018-04-26T09:14:04.302Z,59.20
2018-04-26T09:16:31.890Z,59.10
2018-04-26T09:18:59.542Z,57.60
2018-04-26T09:21:27.002Z,57.10
2018-04-26T09:23:54.675Z,57.00
2018-04-26T09:26:22.330Z,58.00
2018-04-26T09:28:49.855Z,58.20
2018-04-26T09:31:17.447Z,58.40
2018-04-26T09:33:45.116Z,57.60
2018-04-26T09:36:12.750Z,56.50
2018-04-26T09:38:40.299Z,57.10
2018-04-26T09:41:07.747Z,55.30
2018-04-26T09:43:35.205Z,56.10
2018-04-26T09:46:02.658Z,56.30
2018-04-26T09:48:30.093Z,56.80
2018-04-26T09:50:57.713Z,56.60
2018-04-26T09:53:25.388Z,57.10
2018-04-26T09:55:52.806Z,56.20
2018-04-26T09:58:20.344Z,55.00
2018-04-26T10:00:52.696Z,54.60
2018-04-26T10:03:20.149Z,55.80
2018-04-26T10:05:53.379Z,55.50
2018-04-26T10:08:20.945Z,55.00
2018-04-26T10:10:48.428Z,55.30
2018-04-26T10:13:16.632Z,55.50
2018-04-26T10:15:44.362Z,55.50
2018-04-26T10:18:12.700Z,53.90
2018-04-26T10:20:40.303Z,53.80
2018-04-26T10:23:09.261Z,54.20
2018-04-26T10:25:36.723Z,54.20
2018-04-26T10:28:04.291Z,54.00
2018-04-26T10:30:31.957Z,53.20
2018-04-26T10:33:02.192Z,53.20
2018-04-26T10:35:30.608Z,53.10
2018-04-26T10:37:58.003Z,53.10
2018-04-26T10:40:25.675Z,53.00
2018-04-26T10:42:53.135Z,53.30
2018-04-26T10:45:20.796Z,53.70
2018-04-26T10:47:48.452Z,52.50
2018-04-26T10:50:16.126Z,52.40
2018-04-26T10:52:44.470Z,52.40
2018-04-26T10:55:12.054Z,52.90
2018-04-26T10:57:42.075Z,53.30
2018-04-26T11:00:09.568Z,53.20
2018-04-26T11:02:37.775Z,52.80
2018-04-26T11:05:05.664Z,52.70
2018-04-26T11:07:33.911Z,53.50
2018-04-26T11:10:01.564Z,53.30
2018-04-26T11:12:29.041Z,52.40
2018-04-26T11:14:56.613Z,51.60
2018-04-26T11:17:24.276Z,51.70
2018-04-26T11:19:51.913Z,51.90
2018-04-26T11:22:19.584Z,52.40
2018-04-26T11:24:47.237Z,52.80
2018-04-26T11:27:15.293Z,52.50
2018-04-26T11:29:42.744Z,52.70
2018-04-26T11:32:10.212Z,52.70
2018-04-26T11:34:37.880Z,53.30
2018-04-26T11:37:05.351Z,53.00
2018-04-26T11:39:32.801Z,52.40
2018-04-26T11:42:00.351Z,52.20
2018-04-26T11:44:27.819Z,51.80
2018-04-26T11:46:55.361Z,51.90
2018-04-26T11:49:22.827Z,51.70
2018-04-26T11:51:50.281Z,49.90
2018-04-26T11:54:17.950Z,49.40
2018-04-26T11:56:45.422Z,50.40
2018-04-26T11:59:12.926Z,50.10
2018-04-26T12:01:40.397Z,50.60
2018-04-26T12:04:07.844Z,50.60
2018-04-26T12:06:35.298Z,48.40
2018-04-26T12:09:02.928Z,48.60
2018-04-26T12:11:30.394Z,47.90
2018-04-26T12:13:57.839Z,49.10
2018-04-26T12:16:25.349Z,48.90
2018-04-26T12:18:52.970Z,49.80
2018-04-26T12:21:20.487Z,50.40
2018-04-26T12:23:47.947Z,49.70
2018-04-26T12:26:15.395Z,49.80
2018-04-26T12:28:42.843Z,50.20
2018-04-26T12:31:11.325Z,50.30
2018-04-26T12:33:38.778Z,51.10
2018-04-26T12:36:06.347Z,51.40
2018-04-26T12:38:35.422Z,50.80
2018-04-26T12:41:03.087Z,50.80
2018-04-26T12:43:30.707Z,50.20
2018-04-26T12:45:59.033Z,49.30
2018-04-26T12:48:26.695Z,49.30
2018-04-26T12:50:54.235Z,49.40
2018-04-26T12:53:21.689Z,49.70
2018-04-26T12:55:49.145Z,49.70
2018-04-26T12:58:16.671Z,49.70
2018-04-26T13:00:44.153Z,49.80
2018-04-26T13:03:11.728Z,49.10
2018-04-26T13:05:39.285Z,49.40
2018-04-26T13:08:06.827Z,48.50
2018-04-26T13:10:34.499Z,48.20
2018-04-26T13:13:01.934Z,48.50
2018-04-26T13:15:29.409Z,49.40
2018-04-26T13:17:56.996Z,49.40
2018-04-26T13:20:24.432Z,48.50
2018-04-26T13:22:51.967Z,47.90
2018-04-26T13:25:19.419Z,47.50
2018-04-26T13:27:47.268Z,48.20
2018-04-26T13:30:14.824Z,49.10
2018-04-26T13:32:42.304Z,49.20
2018-04-26T13:35:09.757Z,47.70
2018-04-26T13:37:37.354Z,48.60
2018-04-26T13:40:05.924Z,49.30
2018-04-26T13:42:33.569Z,50.10
2018-04-26T13:45:01.030Z,49.60
2018-04-26T13:47:28.552Z,49.50
2018-04-26T13:49:56.092Z,49.80
2018-04-26T13:52:24.938Z,49.80
2018-04-26T13:54:52.514Z,49.80
2018-04-26T13:57:20.033Z,50.70
2018-04-26T13:59:47.572Z,50.20
2018-04-26T14:02:15.087Z,50.50
2018-04-26T14:04:42.616Z,50.70
2018-04-26T14:07:10.076Z,50.00
2018-04-26T14:09:37.644Z,50.10
2018-04-26T14:12:05.123Z,48.90
2018-04-26T14:14:33.202Z,48.30
2018-04-26T14:17:00.854Z,48.60
2018-04-26T14:19:28.505Z,49.10
2018-04-26T14:21:55.978Z,48.60
2018-04-26T14:24:23.635Z,49.50
2018-04-26T14:26:51.273Z,48.30
2018-04-26T14:29:18.780Z,47.90
2018-04-26T14:31:46.200Z,47.70
2018-04-26T14:34:13.664Z,47.40
2018-04-26T14:36:42.131Z,47.50
2018-04-26T14:39:10.402Z,46.80
2018-04-26T14:41:37.911Z,46.70
2018-04-26T14:44:05.505Z,47.20
2018-04-26T14:46:33.172Z,47.90
2018-04-26T14:49:00.656Z,46.40
2018-04-26T14:51:28.110Z,46.70
2018-04-26T14:53:55.762Z,46.60
2018-04-26T14:56:23.419Z,45.40
2018-04-26T14:58:51.067Z,45.50
2018-04-26T15:01:18.750Z,45.10
2018-04-26T15:03:46.286Z,44.20
2018-04-26T15:06:13.744Z,44.30
2018-04-26T15:08:41.737Z,44.60
2018-04-26T15:11:10.101Z,45.10
2018-04-26T15:13:39.180Z,44.10
2018-04-26T15:16:06.678Z,44.10
2018-04-26T15:18:36.015Z,44.30
2018-04-26T15:21:04.425Z,44.20
2018-04-26T15:23:31.965Z,43.60
2018-04-26T15:26:00.371Z,43.70
2018-04-26T15:28:28.235Z,43.60
2018-04-26T15:30:56.480Z,44.50
2018-04-26T15:33:24.447Z,44.50
2018-04-26T15:35:53.045Z,44.50
2018-04-26T15:38:20.515Z,44.30
2018-04-26T15:40:48.016Z,43.90
2018-04-26T15:43:15.724Z,44.50
2018-04-26T15:45:43.407Z,45.20
2018-04-26T15:48:11.861Z,44.20
2018-04-26T15:50:54.262Z,43.80
2018-04-26T15:53:33.886Z,44.10
2018-04-26T15:56:13.976Z,43.90
2018-04-26T15:59:00.067Z,45.10
2018-04-26T16:04:45.009Z,45.40
2018-04-26T16:07:42.475Z,45.40
2018-04-26T16:13:48.098Z,44.40
2018-04-26T16:16:34.073Z,44.60
2018-04-26T16:19:19.335Z,44.50
2018-04-26T16:22:04.393Z,44.20
2018-04-26T16:24:49.583Z,45.00
2018-04-26T16:27:34.614Z,44.60
2018-04-26T16:30:14.049Z,44.30
2018-04-26T16:32:59.017Z,45.40
2018-04-26T16:35:38.424Z,44.30
2018-04-26T16:38:17.795Z,44.40
2018-04-26T16:40:45.457Z,44.40
2018-04-26T16:43:12.919Z,44.30
2018-04-26T16:45:40.411Z,44.20
2018-04-26T16:48:07.901Z,44.00
2018-04-26T16:50:36.199Z,44.20
2018-04-26T16:53:03.725Z,44.20
2018-04-26T16:55:31.339Z,43.60
2018-04-26T16:57:58.969Z,43.90
2018-04-26T17:00:26.683Z,44.30
2018-04-26T17:02:54.332Z,44.40
2018-04-26T17:05:22.610Z,44.00
2018-04-26T17:07:50.078Z,44.10
2018-04-26T17:10:18.253Z,44.40
2018-04-26T17:12:48.167Z,44.60
2018-04-26T17:15:16.120Z,44.50
2018-04-26T17:17:45.027Z,44.40
2018-04-26T17:20:12.546Z,44.80
2018-04-26T17:22:41.183Z,45.40
2018-04-26T17:25:08.650Z,45.40
2018-04-26T17:27:36.302Z,45.80
2018-04-26T17:30:04.237Z,45.50
2018-04-26T17:35:07.947Z,45.70
2018-04-26T17:37:37.506Z,46.30
2018-04-26T17:40:07.783Z,46.70
2018-04-26T17:42:35.454Z,47.30
2018-04-26T17:45:03.378Z,47.00
2018-04-26T17:47:33.504Z,46.30
2018-04-26T17:50:04.039Z,45.80
2018-04-26T17:52:31.580Z,46.40
2018-04-26T17:54:59.048Z,46.60
2018-04-26T17:57:26.654Z,46.70
2018-04-26T17:59:54.517Z,47.10
2018-04-26T18:02:24.061Z,47.30
2018-04-26T18:04:51.655Z,47.00
2018-04-26T18:07:19.185Z,47.30
2018-04-26T18:09:46.651Z,47.10
2018-04-26T18:12:14.090Z,47.50
2018-04-26T18:14:44.659Z,47.70
2018-04-26T18:17:12.903Z,48.00
2018-04-26T18:19:40.464Z,48.40
2018-04-26T18:22:07.945Z,48.80
2018-04-26T18:24:35.472Z,48.90
2018-04-26T18:27:03.056Z,49.20
2018-04-26T18:29:30.519Z,49.60
2018-04-26T18:31:58.184Z,50.10
2018-04-26T18:34:25.632Z,50.50
2018-04-26T18:36:53.924Z,50.90
2018-04-26T18:39:21.364Z,51.20
2018-04-26T18:41:48.825Z,51.50
2018-04-26T18:44:16.361Z,51.90
2018-04-26T18:46:44.442Z,52.20
2018-04-26T18:49:13.918Z,52.30
2018-04-26T18:51:47.151Z,52.80
2018-04-26T18:54:17.036Z,52.80
2018-04-26T18:56:44.629Z,52.90
2018-04-26T18:59:14.617Z,52.90
2018-04-26T19:01:43.695Z,53.00
2018-04-26T19:04:11.972Z,53.20
2018-04-26T19:06:39.631Z,53.20
2018-04-26T19:09:10.183Z,53.30
2018-04-26T19:11:37.800Z,53.40
2018-04-26T19:14:10.844Z,54.10
2018-04-26T19:16:38.392Z,53.60
2018-04-26T19:19:05.961Z,53.80
2018-04-26T19:21:33.417Z,53.80
2018-04-26T19:24:00.900Z,54.00
2018-04-26T19:26:29.109Z,54.10
2018-04-26T19:29:00.546Z,54.10
2018-04-26T19:31:29.898Z,54.10
2018-04-26T19:33:58.919Z,54.40
2018-04-26T19:36:28.384Z,54.40
2018-04-26T19:38:59.394Z,54.80
2018-04-26T19:41:27.409Z,54.80
2018-04-26T19:43:56.482Z,54.80
2018-04-26T19:46:25.103Z,54.90
2018-04-26T19:48:53.655Z,55.10
2018-04-26T19:51:21.286Z,55.10
2018-04-26T19:53:50.425Z,55.20
2018-04-26T19:56:18.869Z,55.40
2018-04-26T19:58:49.777Z,55.50
2018-04-26T20:01:19.104Z,55.50
2018-04-26T20:03:50.191Z,55.50
2018-04-26T20:06:17.722Z,55.60
2018-04-26T20:08:45.353Z,55.80
2018-04-26T20:11:12.848Z,56.00
2018-04-26T20:13:40.519Z,56.10
2018-04-26T20:16:08.758Z,56.40
2018-04-26T20:18:38.311Z,56.30
2018-04-26T20:21:06.058Z,56.50
2018-04-26T20:23:33.495Z,56.60
2018-04-26T20:26:08.461Z,56.70
2018-04-26T20:28:37.123Z,57.00
2018-04-26T20:31:10.180Z,56.90
2018-04-26T20:33:37.712Z,57.00
2018-04-26T20:36:07.976Z,56.90
2018-04-26T20:38:38.951Z,57.10
2018-04-26T20:41:07.747Z,57.20
2018-04-26T20:43:36.348Z,57.30
2018-04-26T20:46:08.590Z,57.70
2018-04-26T20:48:43.061Z,57.80
2018-04-26T20:51:13.820Z,57.70
2018-04-26T20:53:42.609Z,58.00
2018-04-26T20:56:10.462Z,58.20
2018-04-26T20:58:37.972Z,58.20
2018-04-26T21:01:07.489Z,58.30
2018-04-26T21:06:16.260Z,59.00
2018-04-26T21:08:44.016Z,58.80
2018-04-26T21:11:11.881Z,59.10
2018-04-26T21:13:39.943Z,59.10
2018-04-26T21:16:07.668Z,59.50
2018-04-26T21:18:35.275Z,60.00
2018-04-26T21:21:03.155Z,60.20
2018-04-26T21:23:31.134Z,60.40
2018-04-26T21:26:03.099Z,60.60
2018-04-26T21:28:31.672Z,60.90
2018-04-26T21:30:59.980Z,61.30
2018-04-26T21:33:28.709Z,61.90
2018-04-26T21:35:56.360Z,62.60
2018-04-26T21:38:26.079Z,62.60
2018-04-26T21:40:53.718Z,63.00
2018-04-26T21:43:21.262Z,63.20
2018-04-26T21:45:50.559Z,64.00
2018-04-26T21:48:18.943Z,64.10
2018-04-26T21:50:52.728Z,64.00
2018-04-26T21:53:27.787Z,64.60
2018-04-26T21:56:02.386Z,64.70
2018-04-26T21:58:35.559Z,64.70
2018-04-26T22:01:09.113Z,64.80
2018-04-26T22:03:39.288Z,65.30
2018-04-26T22:06:08.645Z,65.60
2018-04-26T22:08:36.709Z,65.60
2018-04-26T22:11:04.398Z,65.70
2018-04-26T22:13:32.096Z,65.70
2018-04-26T22:18:40.195Z,66.10
2018-04-26T22:21:07.773Z,66.00
2018-04-26T22:23:37.808Z,66.20
2018-04-26T22:26:08.407Z,66.20
2018-04-26T22:28:36.172Z,66.20
2018-04-26T22:31:03.813Z,66.00
2018-04-26T22:33:31.422Z,66.20
2018-04-26T22:36:05.047Z,66.10
2018-04-26T22:38:33.494Z,65.80
2018-04-26T22:41:02.103Z,66.00
2018-04-26T22:43:32.062Z,66.70
2018-04-26T22:45:59.637Z,65.70
2018-04-26T22:48:28.019Z,66.00
2018-04-26T22:50:57.442Z,65.90
2018-04-26T22:53:24.967Z,65.80
2018-04-26T22:55:52.608Z,65.80
2018-04-26T22:58:20.244Z,66.00
2018-04-26T23:00:47.822Z,66.10
2018-04-26T23:03:16.068Z,66.20
2018-04-26T23:05:43.586Z,66.30
2018-04-26T23:08:11.098Z,66.50
2018-04-26T23:10:38.709Z,66.40
2018-04-26T23:13:06.404Z,66.30
2018-04-26T23:15:33.942Z,66.00
2018-04-26T23:18:02.341Z,66.30
2018-04-26T23:20:29.987Z,66.20
2018-04-26T23:22:57.504Z,66.10
2018-04-26T23:25:25.002Z,66.30
2018-04-26T23:27:52.525Z,66.00
2018-04-26T23:30:20.053Z,66.00
2018-04-26T23:32:47.557Z,65.90
2018-04-26T23:35:15.872Z,66.00
2018-04-26T23:37:43.389Z,66.00
2018-04-26T23:40:11.104Z,66.40
2018-04-26T23:42:38.761Z,66.00
2018-04-26T23:45:06.833Z,66.20
2018-04-26T23:47:34.362Z,66.10
2018-04-26T23:50:01.934Z,66.20
2018-04-26T23:52:29.435Z,66.10
2018-04-26T23:54:56.949Z,66.40
2018-04-26T23:57:25.223Z,67.40
2018-04-26T23:59:52.798Z,67.40
